sensor_id;sensor_type;location;lat;lon;timestamp;pressure;altitude;pressure_sealevel;temperature;humidity
14273;BME280;7220;49.450;11.052;2022-12-07T07:51:20;98054.19;;;5.90;100.00
14273;BME280;7220;49.450;11.052;2022-12-07T07:55:54;98043.94;;;10.94;100.00
14273;BME280;7220;49.450;11.052;2022-12-07T07:59:54;98036.16;;;14.12;100.00
14273;BME280;7220;49.450;11.052;2022-12-07T08:03:55;98039.09;;;16.36;100.00
14273;BME280;7220;49.450;11.052;2022-12-07T08:07:55;98055.38;;;16.90;100.00
14273;BME280;7220;49.450;11.052;2022-12-07T08:11:57;98075.34;;;12.51;88.72
14273;BME280;7220;49.450;11.052;2022-12-07T08:15:58;98085.47;;;9.46;89.54
14273;BME280;7220;49.450;11.052;2022-12-07T08:19:58;98101.13;;;7.82;89.40
14273;BME280;7220;49.450;11.052;2022-12-07T08:23:59;98094.88;;;6.56;90.02
14273;BME280;7220;49.450;11.052;2022-12-07T08:27:59;98090.22;;;5.66;91.61
14273;BME280;7220;49.450;11.052;2022-12-07T08:32:00;98117.13;;;4.97;94.60
14273;BME280;7220;49.450;11.052;2022-12-07T08:36:07;98105.69;;;4.71;96.48
14273;BME280;7220;49.450;11.052;2022-12-07T08:40:09;98104.47;;;4.53;97.33
14273;BME280;7220;49.450;11.052;2022-12-07T08:44:10;98086.00;;;4.26;99.00
14273;BME280;7220;49.450;11.052;2022-12-07T08:48:13;98094.22;;;4.15;100.00
14273;BME280;7220;49.450;11.052;2022-12-07T08:52:15;98093.72;;;4.01;100.00
14273;BME280;7220;49.450;11.052;2022-12-07T08:56:15;98097.56;;;3.89;100.00
14273;BME280;7220;49.450;11.052;2022-12-07T09:00:16;98099.47;;;3.84;100.00
14273;BME280;7220;49.450;11.052;2022-12-07T09:04:20;98103.25;;;3.73;100.00
14273;BME280;7220;49.450;11.052;2022-12-07T09:08:22;98104.13;;;3.74;100.00
14273;BME280;7220;49.450;11.052;2022-12-07T09:12:26;98102.47;;;3.70;100.00
14273;BME280;7220;49.450;11.052;2022-12-07T09:16:26;98122.91;;;3.60;100.00
14273;BME280;7220;49.450;11.052;2022-12-07T09:20:26;98118.75;;;3.51;100.00
14273;BME280;7220;49.450;11.052;2022-12-07T09:24:26;98120.56;;;3.49;100.00
14273;BME280;7220;49.450;11.052;2022-12-07T09:28:27;98116.38;;;3.42;100.00
14273;BME280;7220;49.450;11.052;2022-12-07T09:32:28;98120.97;;;3.34;100.00
14273;BME280;7220;49.450;11.052;2022-12-07T09:36:28;98118.78;;;3.15;100.00
14273;BME280;7220;49.450;11.052;2022-12-07T09:40:29;98116.38;;;3.06;100.00
14273;BME280;7220;49.450;11.052;2022-12-07T09:44:29;98124.19;;;3.09;100.00
14273;BME280;7220;49.450;11.052;2022-12-07T09:48:34;98122.69;;;2.98;100.00
14273;BME280;7220;49.450;11.052;2022-12-07T09:52:36;98116.75;;;2.90;100.00
14273;BME280;7220;49.450;11.052;2022-12-07T09:56:36;98111.28;;;2.99;100.00
14273;BME280;7220;49.450;11.052;2022-12-07T10:00:37;98103.34;;;3.03;100.00
14273;BME280;7220;49.450;11.052;2022-12-07T10:04:37;98105.94;;;3.04;100.00
14273;BME280;7220;49.450;11.052;2022-12-07T10:08:38;98102.13;;;3.16;100.00
14273;BME280;7220;49.450;11.052;2022-12-07T10:13:03;98100.97;;;3.28;100.00
14273;BME280;7220;49.450;11.052;2022-12-07T10:17:37;98091.19;;;3.33;100.00
14273;BME280;7220;49.450;11.052;2022-12-07T10:22:12;98096.19;;;3.44;100.00
14273;BME280;7220;49.450;11.052;2022-12-07T10:30:20;98082.94;;;3.47;100.00
14273;BME280;7220;49.450;11.052;2022-12-07T10:34:26;98076.63;;;3.54;100.00
14273;BME280;7220;49.450;11.052;2022-12-07T10:38:27;98072.97;;;3.60;100.00
14273;BME280;7220;49.450;11.052;2022-12-07T10:42:30;98064.25;;;3.58;100.00
14273;BME280;7220;49.450;11.052;2022-12-07T10:46:42;98066.03;;;3.57;100.00
14273;BME280;7220;49.450;11.052;2022-12-07T11:12:23;98055.06;;;3.41;100.00
14273;BME280;7220;49.450;11.052;2022-12-07T11:16:38;98056.84;;;3.41;100.00
14273;BME280;7220;49.450;11.052;2022-12-07T11:25:25;98049.38;;;3.58;100.00
14273;BME280;7220;49.450;11.052;2022-12-07T11:29:51;98039.81;;;3.56;100.00
14273;BME280;7220;49.450;11.052;2022-12-07T11:34:08;98034.50;;;3.57;100.00
14273;BME280;7220;49.450;11.052;2022-12-07T11:38:16;98035.97;;;3.68;100.00
14273;BME280;7220;49.450;11.052;2022-12-07T11:42:24;98029.72;;;3.72;100.00
14273;BME280;7220;49.450;11.052;2022-12-07T11:46:49;98023.00;;;3.61;100.00
14273;BME280;7220;49.450;11.052;2022-12-07T11:50:59;98030.84;;;3.63;100.00
14273;BME280;7220;49.450;11.052;2022-12-07T11:55:01;98013.56;;;3.54;100.00
14273;BME280;7220;49.450;11.052;2022-12-07T11:59:23;98020.22;;;3.66;100.00
14273;BME280;7220;49.450;11.052;2022-12-07T12:03:31;98018.22;;;3.76;100.00
14273;BME280;7220;49.450;11.052;2022-12-07T12:07:34;98010.22;;;3.79;100.00
14273;BME280;7220;49.450;11.052;2022-12-07T12:21:25;98006.66;;;3.82;100.00
14273;BME280;7220;49.450;11.052;2022-12-07T12:25:10;98000.53;;;3.81;100.00
14273;BME280;7220;49.450;11.052;2022-12-07T12:29:41;97996.38;;;3.74;100.00
14273;BME280;7220;49.450;11.052;2022-12-07T12:33:47;97985.03;;;3.72;100.00
14273;BME280;7220;49.450;11.052;2022-12-07T12:37:48;97991.81;;;3.79;100.00
14273;BME280;7220;49.450;11.052;2022-12-07T12:41:54;97996.44;;;3.72;100.00
14273;BME280;7220;49.450;11.052;2022-12-07T12:50:30;97985.22;;;3.66;100.00
14273;BME280;7220;49.450;11.052;2022-12-07T12:54:32;97981.69;;;3.67;100.00
14273;BME280;7220;49.450;11.052;2022-12-07T12:58:35;97974.78;;;3.62;100.00
14273;BME280;7220;49.450;11.052;2022-12-07T13:02:38;97982.66;;;3.62;100.00
14273;BME280;7220;49.450;11.052;2022-12-07T13:06:47;97975.88;;;3.55;100.00
14273;BME280;7220;49.450;11.052;2022-12-07T13:10:48;97983.41;;;3.68;100.00
14273;BME280;7220;49.450;11.052;2022-12-07T13:14:58;97979.09;;;3.65;100.00
14273;BME280;7220;49.450;11.052;2022-12-07T13:18:58;97980.03;;;3.64;100.00
14273;BME280;7220;49.450;11.052;2022-12-07T13:22:59;97972.97;;;3.65;100.00
14273;BME280;7220;49.450;11.052;2022-12-07T13:27:00;97966.06;;;3.62;100.00
14273;BME280;7220;49.450;11.052;2022-12-07T13:31:14;97964.19;;;3.66;100.00
14273;BME280;7220;49.450;11.052;2022-12-07T13:39:35;97976.25;;;3.73;100.00
14273;BME280;7220;49.450;11.052;2022-12-07T13:44:00;97969.25;;;3.72;100.00
14273;BME280;7220;49.450;11.052;2022-12-07T13:48:03;97971.91;;;3.72;100.00
14273;BME280;7220;49.450;11.052;2022-12-07T13:52:15;97975.28;;;3.75;100.00
14273;BME280;7220;49.450;11.052;2022-12-07T13:56:16;97968.44;;;3.70;100.00
14273;BME280;7220;49.450;11.052;2022-12-07T14:00:27;97983.38;;;3.69;100.00
14273;BME280;7220;49.450;11.052;2022-12-07T14:04:36;97974.56;;;3.70;100.00
14273;BME280;7220;49.450;11.052;2022-12-07T14:08:36;97983.41;;;3.68;100.00
14273;BME280;7220;49.450;11.052;2022-12-07T14:12:37;97967.91;;;3.58;100.00
14273;BME280;7220;49.450;11.052;2022-12-07T14:16:37;97982.72;;;3.61;100.00
14273;BME280;7220;49.450;11.052;2022-12-07T14:20:40;97980.72;;;3.69;100.00
14273;BME280;7220;49.450;11.052;2022-12-07T14:24:42;97977.28;;;3.67;100.00
14273;BME280;7220;49.450;11.052;2022-12-07T14:28:43;97973.53;;;3.76;100.00
14273;BME280;7220;49.450;11.052;2022-12-07T14:32:43;97969.97;;;3.77;100.00
14273;BME280;7220;49.450;11.052;2022-12-07T14:36:48;97976.81;;;3.83;100.00
14273;BME280;7220;49.450;11.052;2022-12-07T14:40:49;97962.09;;;3.77;100.00
14273;BME280;7220;49.450;11.052;2022-12-07T14:44:49;97956.88;;;3.75;100.00
14273;BME280;7220;49.450;11.052;2022-12-07T14:48:49;97958.94;;;3.66;100.00
14273;BME280;7220;49.450;11.052;2022-12-07T14:52:54;97962.09;;;3.77;100.00
14273;BME280;7220;49.450;11.052;2022-12-07T14:56:55;97956.06;;;3.73;100.00
14273;BME280;7220;49.450;11.052;2022-12-07T15:00:56;97967.72;;;3.65;100.00
14273;BME280;7220;49.450;11.052;2022-12-07T15:04:56;97947.09;;;3.51;100.00
14273;BME280;7220;49.450;11.052;2022-12-07T15:08:56;97951.72;;;3.42;100.00
14273;BME280;7220;49.450;11.052;2022-12-07T15:13:01;97941.13;;;3.45;100.00
14273;BME280;7220;49.450;11.052;2022-12-07T15:17:21;97932.38;;;3.45;100.00
14273;BME280;7220;49.450;11.052;2022-12-07T15:21:21;97938.44;;;3.47;100.00
14273;BME280;7220;49.450;11.052;2022-12-07T15:25:21;97932.34;;;3.46;100.00
14273;BME280;7220;49.450;11.052;2022-12-07T15:29:22;97944.47;;;3.52;100.00
14273;BME280;7220;49.450;11.052;2022-12-07T15:33:22;97943.72;;;3.47;100.00
14273;BME280;7220;49.450;11.052;2022-12-07T15:37:22;97937.50;;;3.50;100.00
14273;BME280;7220;49.450;11.052;2022-12-07T15:41:23;97941.25;;;3.41;100.00
14273;BME280;7220;49.450;11.052;2022-12-07T15:45:23;97945.44;;;3.48;100.00
14273;BME280;7220;49.450;11.052;2022-12-07T15:49:24;97931.47;;;3.46;100.00
14273;BME280;7220;49.450;11.052;2022-12-07T15:53:24;97937.56;;;3.48;100.00
14273;BME280;7220;49.450;11.052;2022-12-07T15:57:25;97943.72;;;3.47;100.00
14273;BME280;7220;49.450;11.052;2022-12-07T16:01:25;97937.22;;;3.59;100.00
14273;BME280;7220;49.450;11.052;2022-12-07T16:05:25;97933.63;;;3.61;100.00
14273;BME280;7220;49.450;11.052;2022-12-07T16:09:25;97925.75;;;3.61;100.00
14273;BME280;7220;49.450;11.052;2022-12-07T16:13:26;97922.34;;;3.59;100.00
14273;BME280;7220;49.450;11.052;2022-12-07T16:17:27;97940.75;;;3.58;100.00
14273;BME280;7220;49.450;11.052;2022-12-07T16:21:27;97937.22;;;3.59;100.00
14273;BME280;7220;49.450;11.052;2022-12-07T16:25:27;97929.13;;;3.67;100.00
14273;BME280;7220;49.450;11.052;2022-12-07T16:29:28;97928.22;;;3.68;100.00
14273;BME280;7220;49.450;11.052;2022-12-07T16:33:28;97928.06;;;3.42;100.00
14273;BME280;7220;49.450;11.052;2022-12-07T16:37:28;97931.28;;;3.22;100.00
14273;BME280;7220;49.450;11.052;2022-12-07T16:41:28;97922.84;;;3.11;100.00
14273;BME280;7220;49.450;11.052;2022-12-07T16:45:29;97926.47;;;3.07;100.00
14273;BME280;7220;49.450;11.052;2022-12-07T16:49:29;97917.75;;;3.05;100.00
14273;BME280;7220;49.450;11.052;2022-12-07T16:53:30;97912.66;;;3.00;100.00
14273;BME280;7220;49.450;11.052;2022-12-07T16:57:30;97916.97;;;3.03;100.00
14273;BME280;7220;49.450;11.052;2022-12-07T17:01:32;97930.03;;;3.04;100.00
14273;BME280;7220;49.450;11.052;2022-12-07T17:05:39;97920.31;;;3.08;100.00
14273;BME280;7220;49.450;11.052;2022-12-07T17:09:39;97910.63;;;3.10;100.00
14273;BME280;7220;49.450;11.052;2022-12-07T17:13:40;97920.06;;;3.17;100.00
14273;BME280;7220;49.450;11.052;2022-12-07T17:17:59;97907.81;;;3.16;100.00
14273;BME280;7220;49.450;11.052;2022-12-07T17:21:59;97898.31;;;3.12;100.00
14273;BME280;7220;49.450;11.052;2022-12-07T17:26:07;97910.50;;;3.14;100.00
14273;BME280;7220;49.450;11.052;2022-12-07T17:30:09;97892.19;;;3.11;100.00
14273;BME280;7220;49.450;11.052;2022-12-07T17:34:14;97902.66;;;3.13;100.00
14273;BME280;7220;49.450;11.052;2022-12-07T17:38:15;97892.59;;;2.97;100.00
14273;BME280;7220;49.450;11.052;2022-12-07T17:42:15;97887.00;;;3.10;100.00
14273;BME280;7220;49.450;11.052;2022-12-07T17:46:34;97892.19;;;3.11;100.00
14273;BME280;7220;49.450;11.052;2022-12-07T17:50:35;97900.19;;;3.08;100.00
14273;BME280;7220;49.450;11.052;2022-12-07T17:54:54;97882.84;;;3.03;100.00
14273;BME280;7220;49.450;11.052;2022-12-07T17:58:57;97884.56;;;3.04;100.00
14273;BME280;7220;49.450;11.052;2022-12-07T18:02:57;97878.56;;;2.98;100.00
14273;BME280;7220;49.450;11.052;2022-12-07T18:06:57;97907.47;;;2.97;100.00
14273;BME280;7220;49.450;11.052;2022-12-07T18:10:58;97882.38;;;2.88;100.00
14273;BME280;7220;49.450;11.052;2022-12-07T18:14:59;97886.66;;;2.91;100.00
14273;BME280;7220;49.450;11.052;2022-12-07T18:19:05;97883.91;;;2.95;100.00
14273;BME280;7220;49.450;11.052;2022-12-07T18:23:05;97883.97;;;2.92;100.00
14273;BME280;7220;49.450;11.052;2022-12-07T18:27:06;97890.97;;;2.93;100.00
14273;BME280;7220;49.450;11.052;2022-12-07T18:31:06;97888.25;;;2.96;100.00
14273;BME280;7220;49.450;11.052;2022-12-07T18:35:07;97898.72;;;2.98;100.00
14273;BME280;7220;49.450;11.052;2022-12-07T18:39:08;97891.78;;;2.95;100.00
14273;BME280;7220;49.450;11.052;2022-12-07T18:43:09;97893.50;;;2.96;100.00
14273;BME280;7220;49.450;11.052;2022-12-07T18:47:09;97886.66;;;2.91;100.00
14273;BME280;7220;49.450;11.052;2022-12-07T18:51:12;97890.44;;;2.80;100.00
14273;BME280;7220;49.450;11.052;2022-12-07T18:55:12;97903.19;;;2.94;100.00
14273;BME280;7220;49.450;11.052;2022-12-07T18:59:13;97896.16;;;2.95;100.00
14273;BME280;7220;49.450;11.052;2022-12-07T19:03:31;97899.66;;;2.95;100.00
14273;BME280;7220;49.450;11.052;2022-12-07T19:07:32;97894.41;;;2.95;100.00
14273;BME280;7220;49.450;11.052;2022-12-07T19:11:32;97885.63;;;2.96;100.00
14273;BME280;7220;49.450;11.052;2022-12-07T19:15:48;97899.44;;;3.03;100.00
14273;BME280;7220;49.450;11.052;2022-12-07T19:19:48;97875.22;;;2.93;100.00
14273;BME280;7220;49.450;11.052;2022-12-07T19:23:49;97881.47;;;2.88;100.00
14273;BME280;7220;49.450;11.052;2022-12-07T19:27:50;97882.19;;;2.94;100.00
14273;BME280;7220;49.450;11.052;2022-12-07T19:31:50;97887.25;;;3.00;100.00
14273;BME280;7220;49.450;11.052;2022-12-07T19:35:50;97883.03;;;2.95;100.00
14273;BME280;7220;49.450;11.052;2022-12-07T19:39:51;97884.09;;;2.88;100.00
14273;BME280;7220;49.450;11.052;2022-12-07T19:43:51;97881.53;;;2.86;100.00
14273;BME280;7220;49.450;11.052;2022-12-07T19:47:51;97880.28;;;2.99;100.00
14273;BME280;7220;49.450;11.052;2022-12-07T19:51:54;97871.81;;;2.90;100.00
14273;BME280;7220;49.450;11.052;2022-12-07T19:55:55;97873.50;;;2.92;100.00
14273;BME280;7220;49.450;11.052;2022-12-07T19:59:56;97890.88;;;2.96;100.00
14273;BME280;7220;49.450;11.052;2022-12-07T20:03:57;97873.22;;;3.02;100.00
14273;BME280;7220;49.450;11.052;2022-12-07T20:07:58;97868.25;;;2.92;100.00
14273;BME280;7220;49.450;11.052;2022-12-07T20:11:58;97856.78;;;2.95;100.00
14273;BME280;7220;49.450;11.052;2022-12-07T20:16:18;97864.72;;;2.93;100.00
14273;BME280;7220;49.450;11.052;2022-12-07T20:20:18;97847.25;;;2.92;100.00
14273;BME280;7220;49.450;11.052;2022-12-07T20:24:21;97855.81;;;2.97;100.00
14273;BME280;7220;49.450;11.052;2022-12-07T20:28:21;97847.06;;;2.98;100.00
14273;BME280;7220;49.450;11.052;2022-12-07T20:32:23;97829.75;;;2.91;100.00
14273;BME280;7220;49.450;11.052;2022-12-07T20:36:24;97846.38;;;2.92;100.00
14273;BME280;7220;49.450;11.052;2022-12-07T20:40:24;97823.66;;;2.91;100.00
14273;BME280;7220;49.450;11.052;2022-12-07T20:44:24;97842.56;;;3.02;100.00
14273;BME280;7220;49.450;11.052;2022-12-07T20:48:25;97839.28;;;2.95;100.00
14273;BME280;7220;49.450;11.052;2022-12-07T20:52:26;97842.03;;;2.91;100.00
14273;BME280;7220;49.450;11.052;2022-12-07T20:56:28;97841.91;;;2.95;100.00
14273;BME280;7220;49.450;11.052;2022-12-07T21:00:29;97836.66;;;2.95;100.00
14273;BME280;7220;49.450;11.052;2022-12-07T21:04:29;97833.22;;;2.93;100.00
14273;BME280;7220;49.450;11.052;2022-12-07T21:08:29;97836.69;;;2.94;100.00
14273;BME280;7220;49.450;11.052;2022-12-07T21:12:30;97837.38;;;3.00;100.00
14273;BME280;7220;49.450;11.052;2022-12-07T21:16:31;97819.25;;;2.91;100.00
14273;BME280;7220;49.450;11.052;2022-12-07T21:20:32;97820.16;;;2.90;100.00
14273;BME280;7220;49.450;11.052;2022-12-07T21:24:32;97813.31;;;2.84;100.00
14273;BME280;7220;49.450;11.052;2022-12-07T21:28:33;97821.84;;;2.93;100.00
14273;BME280;7220;49.450;11.052;2022-12-07T21:32:33;97822.53;;;2.99;100.00
14273;BME280;7220;49.450;11.052;2022-12-07T21:36:34;97825.78;;;3.08;100.00
14273;BME280;7220;49.450;11.052;2022-12-07T21:40:37;97808.22;;;3.10;100.00
14273;BME280;7220;49.450;11.052;2022-12-07T21:44:37;97803.81;;;3.12;100.00
14273;BME280;7220;49.450;11.052;2022-12-07T21:48:38;97808.31;;;3.07;100.00
14273;BME280;7220;49.450;11.052;2022-12-07T21:52:39;97808.31;;;3.07;100.00
14273;BME280;7220;49.450;11.052;2022-12-07T21:56:41;97796.19;;;3.03;100.00
14273;BME280;7220;49.450;11.052;2022-12-07T22:00:42;97787.50;;;3.00;100.00
14273;BME280;7220;49.450;11.052;2022-12-07T22:04:42;97798.69;;;3.07;100.00
14273;BME280;7220;49.450;11.052;2022-12-07T22:08:43;97798.69;;;3.07;100.00
14273;BME280;7220;49.450;11.052;2022-12-07T22:12:44;97787.38;;;3.05;100.00
14273;BME280;7220;49.450;11.052;2022-12-07T22:16:44;97776.91;;;3.04;100.00
14273;BME280;7220;49.450;11.052;2022-12-07T22:20:47;97789.91;;;3.08;100.00
14273;BME280;7220;49.450;11.052;2022-12-07T22:24:47;97781.44;;;2.98;100.00
14273;BME280;7220;49.450;11.052;2022-12-07T22:28:48;97782.31;;;2.97;100.00
14273;BME280;7220;49.450;11.052;2022-12-07T22:32:48;97777.00;;;3.00;100.00
14273;BME280;7220;49.450;11.052;2022-12-07T22:36:49;97775.19;;;3.03;100.00
14273;BME280;7220;49.450;11.052;2022-12-07T22:40:49;97791.66;;;3.08;100.00
14273;BME280;7220;49.450;11.052;2022-12-07T22:44:49;97780.25;;;3.09;100.00
14273;BME280;7220;49.450;11.052;2022-12-07T22:48:51;97749.97;;;2.97;100.00
14273;BME280;7220;49.450;11.052;2022-12-07T22:52:53;97750.06;;;2.94;100.00
14273;BME280;7220;49.450;11.052;2022-12-07T22:56:54;97742.31;;;2.89;100.00
14273;BME280;7220;49.450;11.052;2022-12-07T23:00:54;97747.50;;;2.92;100.00
14273;BME280;7220;49.450;11.052;2022-12-07T23:04:55;97759.63;;;2.96;100.00
14273;BME280;7220;49.450;11.052;2022-12-07T23:08:56;97765.53;;;3.03;100.00
14273;BME280;7220;49.450;11.052;2022-12-07T23:12:57;97749.78;;;3.03;100.00
14273;BME280;7220;49.450;11.052;2022-12-07T23:17:16;97743.00;;;2.96;100.00
14273;BME280;7220;49.450;11.052;2022-12-07T23:21:16;97748.94;;;3.03;100.00
14273;BME280;7220;49.450;11.052;2022-12-07T23:25:16;97738.72;;;2.93;100.00
14273;BME280;7220;49.450;11.052;2022-12-07T23:29:17;97728.28;;;2.92;100.00
14273;BME280;7220;49.450;11.052;2022-12-07T23:33:17;97725.47;;;2.98;100.00
14273;BME280;7220;49.450;11.052;2022-12-07T23:37:17;97728.97;;;2.97;100.00
14273;BME280;7220;49.450;11.052;2022-12-07T23:41:20;97720.75;;;2.79;100.00
14273;BME280;7220;49.450;11.052;2022-12-07T23:45:21;97726.69;;;2.86;100.00
14273;BME280;7220;49.450;11.052;2022-12-07T23:49:21;97726.78;;;2.83;100.00
14273;BME280;7220;49.450;11.052;2022-12-07T23:53:21;97715.50;;;2.79;100.00
14273;BME280;7220;49.450;11.052;2022-12-07T23:57:22;97713.78;;;2.78;100.00
